Time;durP1;ratioP1;P1;durP2;ratioP2;P2;SDS_P1;SDS_P2;PMS_P1;PMS_P2;Temp;Humidity;BMP_temperature;BMP_pressure;BME280_temperature;BME280_humidity;BME280_pressure;Samples;Min_cycle;Max_cycle;Signal;HPM_P1;HPM_P2
2022/02/13 07:51:30;;;;;;;0.00;0.00;;;;;;;7.75;93.34;98445.16;6119733;23;20045;-80
2022/02/13 07:54:46;;;;;;;1.63;0.28;;;;;;;7.73;93.36;98441.97;6055541;23;20033;-80
2022/02/13 07:57:37;;;;;;;0.30;0.00;;;;;;;7.71;93.18;98438.81;6099528;23;20033;-80
2022/02/13 08:00:24;;;;;;;0.20;0.00;;;;;;;7.73;93.05;98443.94;6124055;23;20437;-80
2022/02/13 08:03:40;;;;;;;0.82;0.00;;;;;;;7.74;93.18;98437.25;6076519;23;20364;-80
2022/02/13 08:06:43;;;;;;;0.10;0.00;;;;;;;7.74;92.98;98437.25;6073826;23;20021;-81
2022/02/13 08:09:21;;;;;;;0.22;0.00;;;;;;;7.75;93.01;98439.63;6124918;23;20112;-80
2022/02/13 08:11:51;;;;;;;0.10;0.00;;;;;;;7.76;92.87;98435.69;6123747;23;20021;-80
2022/02/13 08:20:14;;;;;;;0.00;0.00;;;;;;;7.79;92.88;98434.94;5866878;24;20082;-84
2022/02/13 09:30:50;;;;;;;;;;;;;;;;;;;;;
2022/02/13 09:34:18;;;;;;;;;;;;;;;;;;;;;
2022/02/13 09:38:10;;;;;;;;;;;;;;;;;;;;;
2022/02/13 09:41:38;;;;;;;1.63;1.05;;;;;;;8.42;93.74;98279.34;5078388;28;20051;-83
2022/02/13 09:44:53;;;;;;;2.70;0.85;;;;;;;8.42;93.72;98276.59;5090901;28;20134;-83
2022/02/13 09:47:51;;;;;;;0.85;0.40;;;;;;;8.44;93.76;98265.97;5076016;28;20514;-83
2022/02/13 09:50:27;;;;;;;5.65;0.63;;;;;;;8.45;93.82;98264.78;5058557;28;20600;-83
2022/02/13 09:53:10;;;;;;;2.65;0.43;;;;;;;8.49;93.92;98251.81;5112018;28;20487;-83
2022/02/13 09:55:52;;;;;;;1.58;0.50;;;;;;;8.51;94.05;98261.25;5094746;28;20559;-82
2022/02/13 10:29:58;;;;;;;28.30;7.85;;;;;;;8.87;94.52;98195.09;4878585;29;20048;-81
2022/02/13 10:32:47;;;;;;;1.58;0.68;;;;;;;8.91;94.41;98202.16;4906035;28;20052;-82
2022/02/13 10:36:10;;;;;;;3.70;0.88;;;;;;;8.95;94.56;98208.47;5021497;28;20126;-80
2022/02/13 10:43:18;;;;;;;4.75;0.75;;;;;;;9.08;94.68;98176.50;4979123;28;20061;-80
2022/02/13 10:46:14;;;;;;;0.90;0.40;;;;;;;9.16;94.59;98164.25;4998178;28;20101;-80
2022/02/13 10:48:42;;;;;;;1.48;0.52;;;;;;;9.24;94.52;98153.22;4997966;28;20058;-80
2022/02/13 10:51:23;;;;;;;0.82;0.30;;;;;;;9.32;94.72;98149.25;4981794;28;20058;-80
2022/02/13 10:55:06;;;;;;;1.08;0.50;;;;;;;9.41;94.77;98144.06;4988576;28;20050;-80
2022/02/13 10:58:09;;;;;;;;;;;;;;;;;;;;;
2022/02/13 11:01:11;;;;;;;;;;;;;;;;;;;;;
2022/02/13 11:08:42;;;;;;;1.02;0.70;;;;;;;9.81;93.93;98132.44;5017964;28;20972;-82
2022/02/13 11:15:39;;;;;;;0.30;0.30;;;;;;;9.78;92.48;98117.47;5016937;28;20060;-76
2022/02/13 11:18:53;;;;;;;0.60;0.57;;;;;;;9.74;90.35;98124.22;5017472;28;21966;-83
2022/02/13 11:31:03;;;;;;;2.15;1.92;;;;;;;9.50;89.97;98130.63;4959405;28;20059;-82
2022/02/13 11:52:25;;;;;;;3.35;1.60;;;;;;;8.97;90.25;98125.31;4917317;29;20082;-82
2022/02/13 11:55:17;;;;;;;1.08;0.90;;;;;;;8.89;90.26;98119.00;4894350;29;20075;-82
2022/02/13 11:58:02;;;;;;;1.10;0.85;;;;;;;8.89;90.50;98116.25;4937009;28;20183;-82
2022/02/13 12:00:38;;;;;;;2.95;1.88;;;;;;;8.91;90.59;98113.88;4949908;28;20042;-83
2022/02/13 12:03:16;;;;;;;3.08;2.65;;;;;;;8.94;90.50;98118.59;4931836;28;20101;-82
2022/02/13 12:05:49;;;;;;;5.38;3.10;;;;;;;8.97;90.48;98117.03;4966045;28;20105;-82
2022/02/13 12:08:24;;;;;;;3.55;2.83;;;;;;;9.04;90.28;98117.78;4965412;28;20126;-81
2022/02/13 12:11:01;;;;;;;3.95;3.30;;;;;;;9.10;90.09;98121.72;4947204;28;20063;-83
2022/02/13 12:13:28;;;;;;;4.10;2.90;;;;;;;9.11;89.86;98112.22;4964127;28;20597;-82
2022/02/13 12:15:57;;;;;;;5.25;4.28;;;;;;;9.12;89.95;98108.31;4963299;28;20050;-82
2022/02/13 12:18:25;;;;;;;5.00;3.55;;;;;;;9.13;89.97;98118.13;4963915;28;20130;-81
2022/02/13 12:21:03;;;;;;;5.82;3.60;;;;;;;9.15;89.96;98113.03;4960402;28;20047;-81
2022/02/13 12:23:31;;;;;;;7.25;3.60;;;;;;;9.21;90.01;98110.63;4995120;28;20141;-80
2022/02/13 12:25:58;;;;;;;3.55;2.63;;;;;;;9.21;89.92;98107.88;5064122;28;20127;-81
2022/02/13 12:28:31;;;;;;;4.07;3.08;;;;;;;9.22;89.75;98105.88;5031920;28;20059;-81
2022/02/13 12:31:00;;;;;;;3.03;1.75;;;;;;;9.26;89.81;98117.72;5066663;28;20048;-80
2022/02/13 12:33:28;;;;;;;3.35;1.70;;;;;;;9.31;89.54;98104.28;5060482;28;20571;-80
2022/02/13 12:35:59;;;;;;;2.13;1.58;;;;;;;9.34;89.00;98109.00;5064475;28;20029;-83
2022/02/13 12:38:30;;;;;;;3.22;1.92;;;;;;;9.32;88.23;98116.13;5021288;28;20067;-81
2022/02/13 12:40:58;;;;;;;2.20;1.38;;;;;;;9.36;87.96;98125.16;5065689;28;20036;-83
2022/02/13 12:43:26;;;;;;;1.20;0.90;;;;;;;9.40;87.89;98128.72;5065058;28;20423;-81
2022/02/13 12:45:55;;;;;;;7.97;2.45;;;;;;;9.51;88.07;98129.44;5065398;28;20040;-82
2022/02/13 12:48:28;;;;;;;7.60;2.20;;;;;;;9.51;87.02;98118.38;5064068;28;20280;-82
2022/02/13 12:50:59;;;;;;;4.60;2.05;;;;;;;9.60;87.36;98116.00;5067016;28;20072;-82
2022/02/13 12:53:31;;;;;;;1.45;0.63;;;;;;;9.61;86.60;98112.81;5065143;28;20047;-82
2022/02/13 12:56:01;;;;;;;2.50;0.70;;;;;;;9.58;86.24;98107.31;5063351;28;21849;-82
2022/02/13 12:58:37;;;;;;;1.13;0.68;;;;;;;9.56;85.52;98109.69;5063817;28;20054;-81
2022/02/13 13:01:05;;;;;;;0.70;0.70;;;;;;;9.58;85.14;98121.13;5046540;28;20459;-82
2022/02/13 13:03:38;;;;;;;1.45;1.10;;;;;;;9.55;85.23;98122.72;5047725;28;20041;-81
2022/02/13 13:06:05;;;;;;;0.73;0.40;;;;;;;9.56;85.34;98115.19;5064271;28;20044;-80
2022/02/13 13:08:46;;;;;;;2.55;0.95;;;;;;;9.53;84.58;98116.03;5063322;28;20442;-80
2022/02/13 13:11:27;;;;;;;1.67;1.13;;;;;;;9.63;84.83;98104.13;5065631;28;20064;-81
2022/02/13 13:14:14;;;;;;;2.08;1.52;;;;;;;9.61;84.35;98112.03;5062409;28;20340;-82
2022/02/13 13:21:21;;;;;;;2.30;0.68;;;;;;;9.51;84.49;98118.38;5034423;28;20777;-82
2022/02/13 13:24:18;;;;;;;4.13;0.80;;;;;;;9.57;84.57;98122.31;5050025;28;20053;-80
2022/02/13 13:26:48;;;;;;;2.05;0.57;;;;;;;9.60;84.28;98124.28;5045817;28;20048;-84
2022/02/13 13:29:22;;;;;;;1.73;0.60;;;;;;;9.56;84.09;98120.72;5063931;28;20048;-84
2022/02/13 13:32:09;;;;;;;2.80;0.45;;;;;;;9.50;83.69;98125.13;5063888;28;20074;-83
2022/02/13 13:34:38;;;;;;;4.40;0.85;;;;;;;9.44;83.72;98123.94;5042955;28;20056;-83
2022/02/13 13:37:35;;;;;;;1.95;0.80;;;;;;;9.43;83.69;98116.84;5044695;28;20123;-85
2022/02/13 13:40:14;;;;;;;0.40;0.35;;;;;;;9.44;82.67;98123.94;5063145;28;20052;-87
2022/02/13 13:42:45;;;;;;;1.65;1.17;;;;;;;9.44;83.19;98129.47;5045225;28;20072;-84
2022/02/13 13:45:18;;;;;;;2.47;0.70;;;;;;;9.50;83.17;98125.13;5063375;28;20051;-83
2022/02/13 13:47:47;;;;;;;4.43;0.85;;;;;;;9.49;81.97;98115.25;5061613;28;20049;-84
2022/02/13 13:50:22;;;;;;;0.80;0.80;;;;;;;9.47;81.31;98128.69;5063553;28;20471;-84
2022/02/13 13:52:51;;;;;;;1.42;0.90;;;;;;;9.48;81.82;98113.66;5060635;28;20044;-84
2022/02/13 13:55:19;;;;;;;0.85;0.70;;;;;;;9.47;82.08;98112.09;5033474;28;20052;-85
2022/02/13 13:57:47;;;;;;;1.63;0.55;;;;;;;9.52;82.13;98123.53;5059659;28;20041;-84
2022/02/13 14:00:15;;;;;;;1.75;1.15;;;;;;;9.49;81.78;98118.00;5063506;28;20546;-84
2022/02/13 14:02:51;;;;;;;3.38;1.00;;;;;;;9.47;81.67;98128.69;5063225;28;20469;-85
2022/02/13 14:05:19;;;;;;;2.88;0.70;;;;;;;9.39;81.33;98127.13;5062951;28;21122;-85
2022/02/13 14:07:48;;;;;;;6.47;3.30;;;;;;;9.44;82.17;98121.97;5060936;28;20123;-85
2022/02/13 14:10:16;;;;;;;10.13;4.55;;;;;;;9.38;81.84;98126.34;5063484;28;20044;-85
2022/02/13 14:12:46;;;;;;;4.13;2.50;;;;;;;9.28;81.83;98126.38;5034425;28;20056;-84
2022/02/13 14:15:17;;;;;;;4.93;2.17;;;;;;;9.19;81.68;98124.03;5042959;28;20048;-83
2022/02/13 14:17:44;;;;;;;7.20;3.83;;;;;;;9.13;81.65;98131.94;5043608;28;20101;-84
2022/02/13 14:20:13;;;;;;;7.15;3.10;;;;;;;9.15;81.84;98123.28;5034599;28;20142;-84
2022/02/13 14:22:40;;;;;;;4.32;2.42;;;;;;;9.11;81.65;98112.22;5044007;28;20053;-82
2022/02/13 14:25:08;;;;;;;4.07;2.60;;;;;;;9.17;81.69;98102.38;5027406;28;20132;-85
2022/02/13 14:27:37;;;;;;;1.80;1.35;;;;;;;9.26;81.92;98106.66;5062916;28;20068;-84
2022/02/13 14:30:10;;;;;;;2.08;0.90;;;;;;;9.39;81.42;98105.84;5062409;28;20043;-84
2022/02/13 14:32:38;;;;;;;2.35;1.70;;;;;;;9.42;81.19;98107.78;5044904;28;20040;-85
2022/02/13 14:35:14;;;;;;;1.45;0.88;;;;;;;9.45;81.34;98106.19;5043915;28;20048;-86
2022/02/13 14:37:44;;;;;;;0.93;0.93;;;;;;;9.41;81.19;98102.66;5042194;28;20048;-84
2022/02/13 14:40:12;;;;;;;1.63;0.68;;;;;;;9.32;80.74;98105.06;5061302;28;20064;-83
2022/02/13 14:42:40;;;;;;;1.25;0.90;;;;;;;9.28;81.14;98104.28;5043749;28;20126;-84
2022/02/13 14:45:08;;;;;;;1.77;1.10;;;;;;;9.25;80.71;98110.59;5044205;28;20040;-83
2022/02/13 14:47:35;;;;;;;2.45;1.77;;;;;;;9.25;80.82;98116.13;5044423;28;20040;-84
2022/02/13 14:50:03;;;;;;;1.92;1.02;;;;;;;9.29;81.04;98105.88;5060506;28;20041;-83
2022/02/13 14:52:29;;;;;;;5.95;1.67;;;;;;;9.36;81.04;98114.13;5044141;28;20123;-83
2022/02/13 14:54:56;;;;;;;1.33;1.05;;;;;;;9.40;80.96;98123.19;5063608;28;20400;-83
2022/02/13 14:57:23;;;;;;;1.67;1.33;;;;;;;9.45;81.07;98108.97;5061073;28;20036;-84
2022/02/13 14:59:50;;;;;;;2.90;1.20;;;;;;;9.45;80.87;98115.25;5061455;28;20045;-84
2022/02/13 15:02:17;;;;;;;1.85;1.52;;;;;;;9.47;81.00;98123.16;5066323;28;20047;-84
2022/02/13 15:04:44;;;;;;;1.17;0.70;;;;;;;9.45;80.45;98122.78;5066274;28;20571;-80
2022/02/13 15:07:11;;;;;;;1.08;0.70;;;;;;;9.41;80.47;98130.28;5048553;28;20125;-85
2022/02/13 15:09:39;;;;;;;2.13;0.90;;;;;;;9.33;80.88;98128.72;5047148;28;20127;-82
2022/02/13 15:12:07;;;;;;;2.30;1.92;;;;;;;9.32;80.98;98138.22;5064737;28;20430;-83
2022/02/13 15:14:35;;;;;;;4.30;1.73;;;;;;;9.33;81.09;98131.47;5044645;28;20064;-82
2022/02/13 15:17:04;;;;;;;4.03;1.60;;;;;;;9.37;81.39;98132.28;5046098;28;20044;-82
2022/02/13 15:25:34;;;;;;;2.60;1.50;;;;;;;9.53;81.10;98124.31;5024274;28;20140;-82
2022/02/13 15:28:02;;;;;;;1.65;1.40;;;;;;;9.52;81.35;98126.28;5025885;28;20049;-80
2022/02/13 15:30:32;;;;;;;1.58;0.88;;;;;;;9.39;81.14;98135.41;5032364;28;20079;-85
2022/02/13 15:33:00;;;;;;;0.55;0.55;;;;;;;9.20;81.39;98136.66;5049198;28;20049;-81
2022/02/13 15:35:29;;;;;;;2.38;1.10;;;;;;;9.13;81.64;98137.47;5022411;28;20136;-82
2022/02/13 15:37:57;;;;;;;0.57;0.57;;;;;;;9.08;81.71;98137.88;5033457;28;20647;-81
2022/02/13 15:40:26;;;;;;;0.95;0.50;;;;;;;9.00;81.71;98132.78;5010734;28;20046;-80
2022/02/13 15:42:54;;;;;;;1.02;0.93;;;;;;;8.85;81.44;98143.03;5030759;28;20103;-79
2022/02/13 15:45:24;;;;;;;2.28;0.88;;;;;;;8.75;82.00;98141.09;5035346;28;20636;-80
2022/02/13 15:47:52;;;;;;;0.90;0.90;;;;;;;8.65;82.37;98139.16;5028300;28;20033;-80
2022/02/13 15:50:20;;;;;;;1.30;0.77;;;;;;;8.64;82.44;98143.06;5026616;28;20076;-79
2022/02/13 15:52:50;;;;;;;2.63;1.20;;;;;;;8.65;82.62;98152.94;5030829;28;20106;-79
2022/02/13 15:55:17;;;;;;;3.50;1.45;;;;;;;8.58;82.72;98158.44;5030215;28;20103;-79
2022/02/13 15:57:45;;;;;;;2.20;1.48;;;;;;;8.53;82.67;98167.91;5021437;28;20081;-81
2022/02/13 16:00:13;;;;;;;2.15;1.60;;;;;;;8.53;82.81;98175.38;5032281;28;20048;-79
2022/02/13 16:02:41;;;;;;;7.63;3.63;;;;;;;8.60;82.62;98182.88;5027276;28;20041;-80
2022/02/13 16:05:09;;;;;;;4.55;2.40;;;;;;;8.68;82.71;98182.50;5034100;28;20029;-80
2022/02/13 16:07:36;;;;;;;3.58;2.50;;;;;;;8.69;82.36;98189.56;5027871;28;20056;-77
2022/02/13 16:10:09;;;;;;;10.10;4.75;;;;;;;8.62;82.42;98180.50;5033143;28;20079;-82
2022/02/13 16:12:37;;;;;;;17.83;7.50;;;;;;;8.62;82.52;98183.25;5032304;28;20132;-84
2022/02/13 16:15:05;;;;;;;8.27;4.03;;;;;;;8.58;82.68;98186.81;5036275;28;20050;-84
2022/02/13 16:17:33;;;;;;;5.38;3.17;;;;;;;8.55;83.08;98190.34;5032793;28;20102;-85
2022/02/13 16:20:05;;;;;;;7.30;3.55;;;;;;;8.52;83.45;98191.13;5027987;28;20473;-84
2022/02/13 16:22:32;;;;;;;6.20;2.50;;;;;;;8.46;84.04;98191.94;5009055;28;20392;-84
2022/02/13 16:25:00;;;;;;;6.38;3.42;;;;;;;8.38;84.49;98193.91;5014705;28;20065;-83
2022/02/13 16:27:29;;;;;;;3.05;2.03;;;;;;;8.32;84.95;98203.72;5009244;28;20382;-84
2022/02/13 16:29:57;;;;;;;10.98;5.38;;;;;;;8.25;85.11;98214.72;5012107;28;20041;-84
2022/02/13 16:32:26;;;;;;;5.32;2.83;;;;;;;8.26;85.36;98207.25;5019866;28;20060;-84
2022/02/13 16:34:55;;;;;;;6.35;3.95;;;;;;;8.28;85.31;98208.47;5009876;28;20508;-83
2022/02/13 16:37:25;;;;;;;5.18;3.42;;;;;;;8.31;85.32;98220.66;5008451;28;20501;-84
2022/02/13 16:39:53;;;;;;;5.45;3.80;;;;;;;8.29;85.49;98207.25;4998511;28;20137;-83
2022/02/13 16:42:22;;;;;;;5.13;2.85;;;;;;;8.28;85.58;98213.97;5012303;28;20049;-83
2022/02/13 16:44:49;;;;;;;2.65;1.90;;;;;;;8.25;85.86;98213.94;5012203;28;20096;-82
2022/02/13 16:47:21;;;;;;;8.93;3.40;;;;;;;8.23;85.72;98221.81;4981430;28;20053;-84
2022/02/13 16:49:49;;;;;;;5.20;3.00;;;;;;;8.18;85.63;98224.94;5011334;28;20112;-85
2022/02/13 16:52:17;;;;;;;7.78;3.17;;;;;;;8.19;85.98;98221.78;4999175;28;20110;-83
2022/02/13 16:54:45;;;;;;;8.65;3.65;;;;;;;8.19;85.96;98215.47;5004925;28;20478;-83
2022/02/13 16:57:12;;;;;;;5.10;3.72;;;;;;;8.15;86.50;98225.72;5009383;28;20045;-83
2022/02/13 16:59:41;;;;;;;5.82;3.78;;;;;;;8.15;86.08;98228.47;5006915;28;20121;-82
2022/02/13 17:02:08;;;;;;;7.95;5.00;;;;;;;8.14;85.92;98229.66;5011800;28;20195;-82
2022/02/13 17:04:35;;;;;;;8.50;4.95;;;;;;;8.13;85.96;98217.06;5007891;28;20052;-84
2022/02/13 17:07:03;;;;;;;6.75;4.10;;;;;;;8.06;86.38;98228.84;5014516;28;20054;-81
2022/02/13 17:09:30;;;;;;;6.93;4.80;;;;;;;8.03;86.43;98220.56;5004909;28;20128;-83
2022/02/13 17:11:57;;;;;;;6.35;4.38;;;;;;;7.97;86.75;98234.72;5015412;28;20069;-83
2022/02/13 17:14:24;;;;;;;7.75;4.60;;;;;;;7.95;86.54;98237.06;5015321;28;20044;-82
2022/02/13 17:16:51;;;;;;;8.52;5.03;;;;;;;7.87;87.20;98231.91;4997178;28;20041;-84
2022/02/13 17:19:18;;;;;;;8.18;5.32;;;;;;;7.82;86.65;98230.34;5013259;28;20064;-83
2022/02/13 17:21:45;;;;;;;12.15;6.10;;;;;;;7.81;86.92;98228.75;5010882;28;20045;-83
2022/02/13 17:24:12;;;;;;;8.95;5.97;;;;;;;7.77;86.78;98238.97;5012033;28;20533;-83
2022/02/13 17:26:38;;;;;;;8.43;6.10;;;;;;;7.70;86.78;98236.22;5021646;28;20049;-83
2022/02/13 17:29:05;;;;;;;8.73;5.82;;;;;;;7.65;86.86;98230.28;5009741;28;20119;-82
2022/02/13 17:31:33;;;;;;;9.85;6.43;;;;;;;7.58;87.63;98239.28;5010983;28;20385;-82
2022/02/13 17:34:01;;;;;;;8.52;6.25;;;;;;;7.49;87.72;98243.56;5011896;28;20048;-82
2022/02/13 17:36:28;;;;;;;7.85;5.60;;;;;;;7.44;87.84;98241.94;5013846;28;20049;-84
2022/02/13 17:38:57;;;;;;;12.63;7.53;;;;;;;7.45;88.09;98259.25;5002087;28;20100;-82
2022/02/13 17:41:25;;;;;;;9.48;5.47;;;;;;;7.36;88.70;98256.84;5015673;28;20781;-82
2022/02/13 17:43:53;;;;;;;6.70;4.75;;;;;;;7.30;88.58;98241.88;4992443;28;20072;-82
2022/02/13 17:46:23;;;;;;;9.55;5.30;;;;;;;7.30;88.94;98252.91;5013036;28;20490;-82
2022/02/13 17:48:51;;;;;;;11.23;6.20;;;;;;;7.27;89.26;98253.66;5010407;28;20038;-82
2022/02/13 17:51:19;;;;;;;11.05;6.93;;;;;;;7.25;89.05;98256.78;5006110;28;20100;-82
2022/02/13 17:53:46;;;;;;;10.70;6.70;;;;;;;7.24;89.36;98266.22;5009931;28;20038;-83
2022/02/13 17:56:13;;;;;;;14.75;7.97;;;;;;;7.22;89.29;98270.53;5014295;28;20046;-82
2022/02/13 17:58:40;;;;;;;12.07;6.65;;;;;;;7.16;89.63;98261.84;5007440;28;20111;-81
2022/02/13 18:01:07;;;;;;;7.35;4.90;;;;;;;7.12;89.72;98268.50;5010689;28;20041;-82
2022/02/13 18:03:34;;;;;;;8.27;5.10;;;;;;;7.14;89.40;98269.69;5018297;28;20038;-82
2022/02/13 18:06:01;;;;;;;12.82;5.38;;;;;;;7.11;89.81;98275.16;5023294;28;20104;-82
2022/02/13 18:08:28;;;;;;;12.20;5.57;;;;;;;7.12;89.95;98274.00;5009968;28;20627;-82
2022/02/13 18:10:55;;;;;;;9.63;5.35;;;;;;;7.14;89.89;98277.94;5021044;28;20065;-82
2022/02/13 18:13:22;;;;;;;32.88;16.52;;;;;;;7.17;89.78;98276.41;4999811;28;20050;-82
2022/02/13 18:15:50;;;;;;;12.30;7.45;;;;;;;7.22;89.87;98273.28;5010767;28;20083;-82
2022/02/13 18:18:19;;;;;;;5.05;3.60;;;;;;;7.22;90.22;98278.78;5010686;28;20046;-83
2022/02/13 18:24:33;;;;;;;;;;;;;;;;;;;;;
2022/02/13 19:48:44;;;;;;;3.15;1.98;;;;;;;6.46;90.83;98423.44;6159960;23;20089;-85
2022/02/13 20:29:45;;;;;;;2.00;1.20;;;;;;;6.58;89.14;98465.19;6251621;23;20016;-85
2022/02/13 20:45:08;;;;;;;3.08;1.73;;;;;;;6.65;88.64;98494.72;5862941;24;20393;-86
2022/02/13 20:48:59;;;;;;;;;;;;;;;;;;;;;
2022/02/13 20:51:53;;;;;;;2.67;1.70;;;;;;;6.57;88.76;98499.34;5951178;24;20023;-87
2022/02/13 20:55:21;;;;;;;4.65;1.20;;;;;;;6.48;88.74;98498.84;6029069;23;20336;-85
2022/02/13 20:59:04;;;;;;;1.75;1.20;;;;;;;6.52;88.85;98507.13;6122171;23;20018;-86
2022/02/13 21:02:11;;;;;;;1.65;1.10;;;;;;;6.43;88.59;98506.63;6093843;23;20642;-84
2022/02/13 21:08:11;;;;;;;1.23;1.10;;;;;;;6.44;88.52;98517.22;6035455;23;20094;-84
2022/02/13 21:10:44;;;;;;;2.85;1.20;;;;;;;6.44;88.48;98519.97;5988035;23;20496;-85
2022/02/13 21:13:49;;;;;;;;;;;;;;;;;;;;;
2022/02/13 21:17:12;;;;;;;2.97;0.90;;;;;;;6.46;88.25;98539.63;6035899;23;20358;-85
2022/02/13 21:20:18;;;;;;;0.95;0.70;;;;;;;6.49;88.09;98552.63;6156091;23;20019;-88
2022/02/13 21:23:12;;;;;;;0.70;0.70;;;;;;;6.48;87.78;98544.78;6092016;23;20018;-87
